sensor_id;sensor_type;location;lat;lon;timestamp;pressure;altitude;pressure_sealevel;temperature;humidity
71643;BME280;59438;45.014;39.006;2023-02-17T00:00:24;102522.41;;;-2.56;70.85
71643;BME280;59438;45.014;39.006;2023-02-17T00:02:54;102502.41;;;-2.61;70.77
71643;BME280;59438;45.014;39.006;2023-02-17T00:05:22;102513.22;;;-2.51;71.64
71643;BME280;59438;45.014;39.006;2023-02-17T00:07:48;102515.81;;;-2.49;70.47
71643;BME280;59438;45.014;39.006;2023-02-17T00:10:15;102505.53;;;-2.49;71.62
71643;BME280;59438;45.014;39.006;2023-02-17T00:12:41;102510.69;;;-2.49;71.25
71643;BME280;59438;45.014;39.006;2023-02-17T00:15:08;102499.41;;;-2.53;71.32
71643;BME280;59438;45.014;39.006;2023-02-17T00:17:34;102470.63;;;-2.64;70.83
71643;BME280;59438;45.014;39.006;2023-02-17T00:20:01;102514.28;;;-2.46;71.16
71643;BME280;59438;45.014;39.006;2023-02-17T00:22:28;102503.91;;;-2.47;70.85
71643;BME280;59438;45.014;39.006;2023-02-17T00:24:55;102515.03;;;-2.48;70.80
71643;BME280;59438;45.014;39.006;2023-02-17T00:27:21;102498.50;;;-2.53;70.91
71643;BME280;59438;45.014;39.006;2023-02-17T00:29:47;102507.16;;;-2.51;70.71
71643;BME280;59438;45.014;39.006;2023-02-17T00:32:14;102510.56;;;-2.52;70.65
71643;BME280;59438;45.014;39.006;2023-02-17T00:34:40;102505.34;;;-2.54;70.97
71643;BME280;59438;45.014;39.006;2023-02-17T00:37:06;102500.13;;;-2.55;70.33
71643;BME280;59438;45.014;39.006;2023-02-17T00:39:34;102492.34;;;-2.57;70.85
71643;BME280;59438;45.014;39.006;2023-02-17T00:42:01;102493.06;;;-2.59;70.62
71643;BME280;59438;45.014;39.006;2023-02-17T00:44:27;102492.13;;;-2.61;70.63
71643;BME280;59438;45.014;39.006;2023-02-17T00:46:53;102492.28;;;-2.58;71.17
71643;BME280;59438;45.014;39.006;2023-02-17T00:49:21;102473.78;;;-2.69;70.63
71643;BME280;59438;45.014;39.006;2023-02-17T00:51:48;102489.69;;;-2.58;70.86
71643;BME280;59438;45.014;39.006;2023-02-17T00:54:16;102457.69;;;-2.65;70.91
71643;BME280;59438;45.014;39.006;2023-02-17T00:56:44;102478.72;;;-2.54;70.45
71643;BME280;59438;45.014;39.006;2023-02-17T00:59:10;102486.72;;;-2.48;70.94
71643;BME280;59438;45.014;39.006;2023-02-17T01:01:37;102474.72;;;-2.48;70.93
71643;BME280;59438;45.014;39.006;2023-02-17T01:04:04;102476.50;;;-2.47;70.97
71643;BME280;59438;45.014;39.006;2023-02-17T01:06:32;102410.34;;;-2.88;71.17
71643;BME280;59438;45.014;39.006;2023-02-17T01:08:59;102467.16;;;-2.45;70.77
71643;BME280;59438;45.014;39.006;2023-02-17T01:11:28;102473.25;;;-2.42;70.50
71643;BME280;59438;45.014;39.006;2023-02-17T01:13:56;102469.00;;;-2.42;70.66
71643;BME280;59438;45.014;39.006;2023-02-17T01:16:24;102375.13;;;-2.89;71.09
71643;BME280;59438;45.014;39.006;2023-02-17T01:18:51;102442.31;;;-2.44;70.86
71643;BME280;59438;45.014;39.006;2023-02-17T01:21:19;102431.06;;;-2.46;70.52
71643;BME280;59438;45.014;39.006;2023-02-17T01:23:47;102431.25;;;-2.41;71.14
71643;BME280;59438;45.014;39.006;2023-02-17T01:26:15;102450.38;;;-2.36;70.66
71643;BME280;59438;45.014;39.006;2023-02-17T01:28:41;102455.53;;;-2.36;70.58
71643;BME280;59438;45.014;39.006;2023-02-17T01:31:10;102460.66;;;-2.36;70.55
71643;BME280;59438;45.014;39.006;2023-02-17T01:33:37;102464.13;;;-2.36;70.97
71643;BME280;59438;45.014;39.006;2023-02-17T01:36:05;102434.31;;;-2.50;71.11
71643;BME280;59438;45.014;39.006;2023-02-17T01:38:32;102444.47;;;-2.34;70.95
71643;BME280;59438;45.014;39.006;2023-02-17T01:40:58;102442.75;;;-2.33;70.38
71643;BME280;59438;45.014;39.006;2023-02-17T01:43:25;102448.88;;;-2.31;70.51
71643;BME280;59438;45.014;39.006;2023-02-17T01:45:53;102430.72;;;-2.34;71.34
71643;BME280;59438;45.014;39.006;2023-02-17T01:48:23;102442.91;;;-2.30;70.94
71643;BME280;59438;45.014;39.006;2023-02-17T01:50:54;102435.19;;;-2.30;70.35
71643;BME280;59438;45.014;39.006;2023-02-17T01:53:23;102443.91;;;-2.27;70.71
71643;BME280;59438;45.014;39.006;2023-02-17T01:55:53;102443.91;;;-2.27;70.85
71643;BME280;59438;45.014;39.006;2023-02-17T01:58:22;102442.28;;;-2.25;70.45
71643;BME280;59438;45.014;39.006;2023-02-17T02:00:51;102438.03;;;-2.24;70.78
71643;BME280;59438;45.014;39.006;2023-02-17T02:03:18;102431.00;;;-2.28;70.56
71643;BME280;59438;45.014;39.006;2023-02-17T02:05:47;102435.56;;;-2.21;70.82
71643;BME280;59438;45.014;39.006;2023-02-17T02:08:14;102431.31;;;-2.20;70.48
71643;BME280;59438;45.014;39.006;2023-02-17T02:10:40;102429.56;;;-2.21;71.14
71643;BME280;59438;45.014;39.006;2023-02-17T02:13:07;102429.66;;;-2.18;70.44
71643;BME280;59438;45.014;39.006;2023-02-17T02:15:38;102424.59;;;-2.17;70.37
71643;BME280;59438;45.014;39.006;2023-02-17T02:18:15;102425.53;;;-2.15;70.61
71643;BME280;59438;45.014;39.006;2023-02-17T02:21:08;102418.00;;;-2.10;70.24
71643;BME280;59438;45.014;39.006;2023-02-17T02:24:02;102426.66;;;-2.08;69.93
71643;BME280;59438;45.014;39.006;2023-02-17T02:32:53;102422.34;;;-2.09;70.28
71643;BME280;59438;45.014;39.006;2023-02-17T02:35:28;102411.88;;;-2.14;70.32
71643;BME280;59438;45.014;39.006;2023-02-17T02:38:01;102430.19;;;-2.06;70.16
71643;BME280;59438;45.014;39.006;2023-02-17T02:40:31;102392.72;;;-2.40;70.45
71643;BME280;59438;45.014;39.006;2023-02-17T02:43:00;102421.00;;;-2.20;70.24
71643;BME280;59438;45.014;39.006;2023-02-17T02:45:27;102440.38;;;-2.09;70.07
71643;BME280;59438;45.014;39.006;2023-02-17T02:47:56;102377.97;;;-2.44;69.80
71643;BME280;59438;45.014;39.006;2023-02-17T02:50:35;102439.50;;;-2.10;70.08
71643;BME280;59438;45.014;39.006;2023-02-17T02:53:26;102410.78;;;-2.19;69.89
71643;BME280;59438;45.014;39.006;2023-02-17T02:56:04;102436.97;;;-2.08;70.08
71643;BME280;59438;45.014;39.006;2023-02-17T02:58:37;102426.81;;;-2.05;70.38
71643;BME280;59438;45.014;39.006;2023-02-17T03:01:10;102414.47;;;-2.12;70.47
71643;BME280;59438;45.014;39.006;2023-02-17T03:03:46;102432.97;;;-2.01;69.86
71643;BME280;59438;45.014;39.006;2023-02-17T03:06:17;102419.88;;;-2.06;70.17
71643;BME280;59438;45.014;39.006;2023-02-17T03:08:51;102429.72;;;-1.97;69.93
71643;BME280;59438;45.014;39.006;2023-02-17T03:11:21;102417.47;;;-2.03;70.50
71643;BME280;59438;45.014;39.006;2023-02-17T03:13:48;102430.72;;;-1.94;70.39
71643;BME280;59438;45.014;39.006;2023-02-17T03:16:15;102414.19;;;-1.99;70.28
71643;BME280;59438;45.014;39.006;2023-02-17T03:18:42;102429.91;;;-1.93;70.13
71643;BME280;59438;45.014;39.006;2023-02-17T03:21:14;102429.97;;;-1.91;70.15
71643;BME280;59438;45.014;39.006;2023-02-17T03:23:41;102421.41;;;-1.90;70.47
71643;BME280;59438;45.014;39.006;2023-02-17T03:26:07;102416.28;;;-1.90;70.40
71643;BME280;59438;45.014;39.006;2023-02-17T03:28:33;102408.91;;;-2.02;70.08
71643;BME280;59438;45.014;39.006;2023-02-17T03:31:00;102412.56;;;-1.97;70.33
71643;BME280;59438;45.014;39.006;2023-02-17T03:33:26;102404.16;;;-1.93;70.14
71643;BME280;59438;45.014;39.006;2023-02-17T03:35:54;102393.72;;;-1.96;70.72
71643;BME280;59438;45.014;39.006;2023-02-17T03:38:20;102409.66;;;-1.84;70.49
71643;BME280;59438;45.014;39.006;2023-02-17T03:40:47;102405.28;;;-1.86;70.34
71643;BME280;59438;45.014;39.006;2023-02-17T03:43:14;102393.59;;;-1.99;70.05
71643;BME280;59438;45.014;39.006;2023-02-17T03:45:41;102410.75;;;-1.78;70.24
71643;BME280;59438;45.014;39.006;2023-02-17T03:48:07;102407.34;;;-1.77;70.25
71643;BME280;59438;45.014;39.006;2023-02-17T03:50:34;102389.72;;;-1.89;70.07
71643;BME280;59438;45.014;39.006;2023-02-17T03:53:02;102403.09;;;-1.77;69.79
71643;BME280;59438;45.014;39.006;2023-02-17T03:55:28;102401.38;;;-1.76;70.32
71643;BME280;59438;45.014;39.006;2023-02-17T03:57:54;102410.25;;;-1.70;70.35
71643;BME280;59438;45.014;39.006;2023-02-17T04:00:21;102408.59;;;-1.68;70.66
71643;BME280;59438;45.014;39.006;2023-02-17T04:02:47;102413.00;;;-1.65;70.11
71643;BME280;59438;45.014;39.006;2023-02-17T04:05:13;102405.97;;;-1.69;70.04
71643;BME280;59438;45.014;39.006;2023-02-17T04:07:40;102392.91;;;-1.74;70.27
71643;BME280;59438;45.014;39.006;2023-02-17T04:10:08;102407.66;;;-1.70;70.14
71643;BME280;59438;45.014;39.006;2023-02-17T04:12:38;102416.66;;;-1.60;69.57
71643;BME280;59438;45.014;39.006;2023-02-17T04:15:04;102416.72;;;-1.58;69.82
71643;BME280;59438;45.014;39.006;2023-02-17T04:17:31;102391.16;;;-1.75;69.71
71643;BME280;59438;45.014;39.006;2023-02-17T04:19:57;102403.88;;;-1.57;70.28
71643;BME280;59438;45.014;39.006;2023-02-17T04:22:24;102386.19;;;-1.70;70.33
71643;BME280;59438;45.014;39.006;2023-02-17T04:24:50;102399.41;;;-1.61;70.08
71643;BME280;59438;45.014;39.006;2023-02-17T04:27:18;102410.03;;;-1.53;69.62
71643;BME280;59438;45.014;39.006;2023-02-17T04:29:44;102415.97;;;-1.56;70.11
71643;BME280;59438;45.014;39.006;2023-02-17T04:32:10;102425.50;;;-1.53;70.44
71643;BME280;59438;45.014;39.006;2023-02-17T04:34:37;102429.84;;;-1.52;70.40
71643;BME280;59438;45.014;39.006;2023-02-17T04:37:03;102413.56;;;-1.51;70.00
71643;BME280;59438;45.014;39.006;2023-02-17T04:39:30;102426.59;;;-1.48;70.04
71643;BME280;59438;45.014;39.006;2023-02-17T04:41:56;102402.25;;;-1.55;70.03
71643;BME280;59438;45.014;39.006;2023-02-17T04:44:24;102427.56;;;-1.45;70.30
71643;BME280;59438;45.014;39.006;2023-02-17T04:46:50;102389.88;;;-1.64;70.21
71643;BME280;59438;45.014;39.006;2023-02-17T04:49:16;102415.69;;;-1.41;70.59
71643;BME280;59438;45.014;39.006;2023-02-17T04:51:43;102430.53;;;-1.35;70.36
71643;BME280;59438;45.014;39.006;2023-02-17T04:54:09;102413.88;;;-1.44;70.06
71643;BME280;59438;45.014;39.006;2023-02-17T04:56:36;102412.09;;;-1.45;70.20
71643;BME280;59438;45.014;39.006;2023-02-17T04:59:02;102434.16;;;-1.30;70.59
71643;BME280;59438;45.014;39.006;2023-02-17T05:01:30;102421.25;;;-1.30;70.06
71643;BME280;59438;45.014;39.006;2023-02-17T05:03:56;102416.25;;;-1.26;70.38
71643;BME280;59438;45.014;39.006;2023-02-17T05:06:22;102426.72;;;-1.23;70.55
71643;BME280;59438;45.014;39.006;2023-02-17T05:08:49;102401.50;;;-1.30;70.03
71643;BME280;59438;45.014;39.006;2023-02-17T05:11:15;102417.41;;;-1.19;70.39
71643;BME280;59438;45.014;39.006;2023-02-17T05:13:41;102427.97;;;-1.13;70.08
71643;BME280;59438;45.014;39.006;2023-02-17T05:16:08;102411.41;;;-1.18;70.35
71643;BME280;59438;45.014;39.006;2023-02-17T05:18:36;102427.25;;;-1.09;70.12
71643;BME280;59438;45.014;39.006;2023-02-17T05:21:03;102427.34;;;-1.06;70.44
71643;BME280;59438;45.014;39.006;2023-02-17T05:23:29;102424.00;;;-1.03;70.21
71643;BME280;59438;45.014;39.006;2023-02-17T05:25:56;102423.31;;;-0.99;70.09
71643;BME280;59438;45.014;39.006;2023-02-17T05:28:22;102408.50;;;-1.05;70.61
71643;BME280;59438;45.014;39.006;2023-02-17T05:30:49;102420.09;;;-0.93;70.52
71643;BME280;59438;45.014;39.006;2023-02-17T05:33:15;102383.41;;;-1.09;70.64
71643;BME280;59438;45.014;39.006;2023-02-17T05:35:43;102409.75;;;-0.93;70.33
71643;BME280;59438;45.014;39.006;2023-02-17T05:38:09;102410.88;;;-0.87;70.52
71643;BME280;59438;45.014;39.006;2023-02-17T05:40:36;102417.88;;;-0.84;70.53
71643;BME280;59438;45.014;39.006;2023-02-17T05:43:02;102401.31;;;-0.89;70.25
71643;BME280;59438;45.014;39.006;2023-02-17T05:45:29;102417.97;;;-0.81;70.37
71643;BME280;59438;45.014;39.006;2023-02-17T05:47:55;102398.63;;;-0.92;70.73
71643;BME280;59438;45.014;39.006;2023-02-17T05:50:21;102423.25;;;-0.78;70.60
71643;BME280;59438;45.014;39.006;2023-02-17T05:52:49;102422.41;;;-0.77;70.64
71643;BME280;59438;45.014;39.006;2023-02-17T05:55:15;102419.91;;;-0.75;70.91
71643;BME280;59438;45.014;39.006;2023-02-17T05:57:42;102394.69;;;-0.83;70.97
71643;BME280;59438;45.014;39.006;2023-02-17T06:02:37;102410.69;;;-0.69;71.06
71643;BME280;59438;45.014;39.006;2023-02-17T06:05:04;102365.19;;;-0.89;71.33
71643;BME280;59438;45.014;39.006;2023-02-17T06:07:30;102398.63;;;-0.68;71.36
71643;BME280;59438;45.014;39.006;2023-02-17T06:09:58;102391.81;;;-0.68;71.63
71643;BME280;59438;45.014;39.006;2023-02-17T06:12:25;102401.34;;;-0.65;71.86
71643;BME280;59438;45.014;39.006;2023-02-17T06:14:51;102392.72;;;-0.66;71.87
71643;BME280;59438;45.014;39.006;2023-02-17T06:17:17;102384.16;;;-0.65;71.97
71643;BME280;59438;45.014;39.006;2023-02-17T06:19:44;102391.97;;;-0.63;71.96
71643;BME280;59438;45.014;39.006;2023-02-17T06:22:10;102377.28;;;-0.64;71.97
71643;BME280;59438;45.014;39.006;2023-02-17T06:24:36;102385.09;;;-0.63;71.87
71643;BME280;59438;45.014;39.006;2023-02-17T06:27:04;102370.69;;;-0.56;72.33
71643;BME280;59438;45.014;39.006;2023-02-17T06:29:31;102357.69;;;-0.59;72.34
71643;BME280;59438;45.014;39.006;2023-02-17T06:31:57;102376.13;;;-0.48;72.33
71643;BME280;59438;45.014;39.006;2023-02-17T06:34:23;102364.16;;;-0.46;72.38
71643;BME280;59438;45.014;39.006;2023-02-17T06:36:50;102363.34;;;-0.45;72.46
71643;BME280;59438;45.014;39.006;2023-02-17T06:39:16;102360.06;;;-0.39;72.52
71643;BME280;59438;45.014;39.006;2023-02-17T06:41:42;102353.25;;;-0.37;72.47
71643;BME280;59438;45.014;39.006;2023-02-17T06:44:10;102352.50;;;-0.35;72.79
71643;BME280;59438;45.014;39.006;2023-02-17T06:46:37;102349.16;;;-0.32;72.50
71643;BME280;59438;45.014;39.006;2023-02-17T06:49:03;102343.13;;;-0.33;72.51
71643;BME280;59438;45.014;39.006;2023-02-17T06:51:30;102340.69;;;-0.28;72.71
71643;BME280;59438;45.014;39.006;2023-02-17T06:53:56;102340.81;;;-0.24;72.71
71643;BME280;59438;45.014;39.006;2023-02-17T06:56:23;102333.13;;;-0.22;72.92
71643;BME280;59438;45.014;39.006;2023-02-17T06:58:49;102335.78;;;-0.21;72.84
71643;BME280;59438;45.014;39.006;2023-02-17T07:01:19;102287.56;;;-0.46;72.93
71643;BME280;59438;45.014;39.006;2023-02-17T07:03:46;102319.38;;;-0.21;72.91
71643;BME280;59438;45.014;39.006;2023-02-17T07:06:13;102323.88;;;-0.15;72.84
71643;BME280;59438;45.014;39.006;2023-02-17T07:08:40;102331.03;;;-0.08;72.98
71643;BME280;59438;45.014;39.006;2023-02-17T07:11:07;102303.69;;;-0.27;72.90
71643;BME280;59438;45.014;39.006;2023-02-17T07:13:34;102305.53;;;-0.23;72.40
71643;BME280;59438;45.014;39.006;2023-02-17T07:16:00;102337.13;;;-0.05;72.91
71643;BME280;59438;45.014;39.006;2023-02-17T07:18:28;102328.53;;;-0.05;73.06
71643;BME280;59438;45.014;39.006;2023-02-17T07:20:55;102327.72;;;-0.03;72.99
71643;BME280;59438;45.014;39.006;2023-02-17T07:23:21;102326.91;;;-0.02;72.90
71643;BME280;59438;45.014;39.006;2023-02-17T07:25:48;102319.31;;;0.03;73.00
71643;BME280;59438;45.014;39.006;2023-02-17T07:28:14;102310.81;;;0.07;73.15
71643;BME280;59438;45.014;39.006;2023-02-17T07:30:41;102313.56;;;0.12;72.98
71643;BME280;59438;45.014;39.006;2023-02-17T07:33:09;102298.63;;;0.03;73.53
71643;BME280;59438;45.014;39.006;2023-02-17T07:35:41;102297.03;;;0.07;73.35
71643;BME280;59438;45.014;39.006;2023-02-17T07:38:08;102318.13;;;0.20;73.05
71643;BME280;59438;45.014;39.006;2023-02-17T07:40:34;102312.88;;;0.17;73.18
71643;BME280;59438;45.014;39.006;2023-02-17T07:43:01;102312.94;;;0.20;72.81
71643;BME280;59438;45.014;39.006;2023-02-17T07:45:27;102311.09;;;0.16;72.98
71643;BME280;59438;45.014;39.006;2023-02-17T07:47:53;102309.78;;;0.02;73.44
71643;BME280;59438;45.014;39.006;2023-02-17T07:50:20;102313.41;;;0.07;73.56
71643;BME280;59438;45.014;39.006;2023-02-17T07:52:49;102311.63;;;0.06;73.72
71643;BME280;59438;45.014;39.006;2023-02-17T07:55:16;102275.72;;;-0.13;73.62
71643;BME280;59438;45.014;39.006;2023-02-17T07:57:42;102255.66;;;-0.22;73.58
71643;BME280;59438;45.014;39.006;2023-02-17T08:00:09;102298.84;;;0.09;73.77
71643;BME280;59438;45.014;39.006;2023-02-17T08:02:36;102286.69;;;0.07;73.63
71643;BME280;59438;45.014;39.006;2023-02-17T08:05:02;102294.66;;;0.14;73.72
71643;BME280;59438;45.014;39.006;2023-02-17T08:07:28;102273.88;;;0.10;73.71
71643;BME280;59438;45.014;39.006;2023-02-17T08:09:56;102283.56;;;0.17;74.07
71643;BME280;59438;45.014;39.006;2023-02-17T08:12:23;102279.34;;;0.20;73.98
71643;BME280;59438;45.014;39.006;2023-02-17T08:14:49;102272.59;;;0.24;73.74
71643;BME280;59438;45.014;39.006;2023-02-17T08:17:15;102262.34;;;0.27;74.01
71643;BME280;59438;45.014;39.006;2023-02-17T08:19:42;102262.44;;;0.30;73.83
71643;BME280;59438;45.014;39.006;2023-02-17T08:22:08;102224.03;;;0.14;74.09
71643;BME280;59438;45.014;39.006;2023-02-17T08:24:34;102264.41;;;0.39;74.50
71643;BME280;59438;45.014;39.006;2023-02-17T08:27:02;102251.47;;;0.39;74.35
71643;BME280;59438;45.014;39.006;2023-02-17T08:29:29;102255.09;;;0.44;74.31
71643;BME280;59438;45.014;39.006;2023-02-17T08:31:55;102250.16;;;0.52;74.07
71643;BME280;59438;45.014;39.006;2023-02-17T08:34:21;102247.41;;;0.47;74.65
71643;BME280;59438;45.014;39.006;2023-02-17T08:36:48;102248.50;;;0.55;74.42
71643;BME280;59438;45.014;39.006;2023-02-17T08:39:16;102194.59;;;0.37;74.55
71643;BME280;59438;45.014;39.006;2023-02-17T08:41:43;102200.84;;;0.46;74.57
71643;BME280;59438;45.014;39.006;2023-02-17T08:44:12;102211.38;;;0.53;75.19
71643;BME280;59438;45.014;39.006;2023-02-17T08:46:39;102223.78;;;0.65;75.04
71643;BME280;59438;45.014;39.006;2023-02-17T08:49:06;102183.56;;;0.45;75.05
71643;BME280;59438;45.014;39.006;2023-02-17T08:51:33;102194.38;;;0.60;75.13
71643;BME280;59438;45.014;39.006;2023-02-17T08:54:00;102218.91;;;0.76;75.08
71643;BME280;59438;45.014;39.006;2023-02-17T08:56:27;102184.19;;;0.66;74.66
71643;BME280;59438;45.014;39.006;2023-02-17T08:58:54;102177.38;;;0.70;74.95
71643;BME280;59438;45.014;39.006;2023-02-17T09:01:23;102192.41;;;0.83;75.04
71643;BME280;59438;45.014;39.006;2023-02-17T09:03:51;102202.91;;;0.89;74.85
71643;BME280;59438;45.014;39.006;2023-02-17T09:06:18;102157.34;;;0.63;74.51
71643;BME280;59438;45.014;39.006;2023-02-17T09:08:45;102168.16;;;0.79;74.65
71643;BME280;59438;45.014;39.006;2023-02-17T09:11:12;102181.41;;;0.92;74.88
71643;BME280;59438;45.014;39.006;2023-02-17T09:13:38;102176.31;;;0.95;74.79
71643;BME280;59438;45.014;39.006;2023-02-17T09:16:05;102175.56;;;0.99;75.24
71643;BME280;59438;45.014;39.006;2023-02-17T09:18:33;102182.66;;;1.06;75.49
71643;BME280;59438;45.014;39.006;2023-02-17T09:21:04;102176.88;;;1.16;76.26
71643;BME280;59438;45.014;39.006;2023-02-17T09:23:31;102182.31;;;1.27;75.50
71643;BME280;59438;45.014;39.006;2023-02-17T09:26:00;102158.19;;;1.28;75.70
71643;BME280;59438;45.014;39.006;2023-02-17T09:28:27;102164.53;;;1.41;74.81
71643;BME280;59438;45.014;39.006;2023-02-17T09:30:53;102166.59;;;1.56;74.92
71643;BME280;59438;45.014;39.006;2023-02-17T09:33:20;102147.50;;;1.51;75.43
71643;BME280;59438;45.014;39.006;2023-02-17T09:35:47;102168.66;;;1.69;74.92
71643;BME280;59438;45.014;39.006;2023-02-17T09:38:14;102155.50;;;1.61;74.93
71643;BME280;59438;45.014;39.006;2023-02-17T09:40:42;102174.06;;;1.80;75.45
71643;BME280;59438;45.014;39.006;2023-02-17T09:43:12;102132.28;;;1.66;75.21
71643;BME280;59438;45.014;39.006;2023-02-17T09:45:41;102155.84;;;1.77;75.23
71643;BME280;59438;45.014;39.006;2023-02-17T09:48:10;102161.31;;;1.89;75.41
71643;BME280;59438;45.014;39.006;2023-02-17T09:50:43;102157.94;;;1.92;75.14
71643;BME280;59438;45.014;39.006;2023-02-17T09:53:16;102149.34;;;1.94;75.63
71643;BME280;59438;45.014;39.006;2023-02-17T09:55:48;102119.75;;;1.85;74.68
71643;BME280;59438;45.014;39.006;2023-02-17T09:58:20;102144.34;;;2.04;75.47
71643;BME280;59438;45.014;39.006;2023-02-17T10:00:52;102135.00;;;2.10;75.15
71643;BME280;59438;45.014;39.006;2023-02-17T10:03:24;102122.94;;;2.12;74.97
71643;BME280;59438;45.014;39.006;2023-02-17T10:05:55;102088.09;;;1.98;74.92
71643;BME280;59438;45.014;39.006;2023-02-17T10:08:31;102107.59;;;2.23;74.93
71643;BME280;59438;45.014;39.006;2023-02-17T10:11:01;102103.47;;;2.33;74.25
71643;BME280;59438;45.014;39.006;2023-02-17T10:13:30;102085.16;;;2.25;74.42
71643;BME280;59438;45.014;39.006;2023-02-17T10:15:59;102087.13;;;2.37;74.32
71643;BME280;59438;45.014;39.006;2023-02-17T10:18:32;102086.34;;;2.41;74.59
71643;BME280;59438;45.014;39.006;2023-02-17T10:21:03;102075.94;;;2.39;74.64
71643;BME280;59438;45.014;39.006;2023-02-17T10:23:31;102076.03;;;2.46;74.45
71643;BME280;59438;45.014;39.006;2023-02-17T10:26:07;102078.66;;;2.49;74.42
71643;BME280;59438;45.014;39.006;2023-02-17T10:28:49;102071.81;;;2.52;74.01
71643;BME280;59438;45.014;39.006;2023-02-17T10:31:23;102063.25;;;2.56;73.79
71643;BME280;59438;45.014;39.006;2023-02-17T10:33:55;102065.03;;;2.59;74.19
71643;BME280;59438;45.014;39.006;2023-02-17T10:36:31;101989.94;;;2.16;73.65
71643;BME280;59438;45.014;39.006;2023-02-17T10:39:02;102040.69;;;2.52;74.11
71643;BME280;59438;45.014;39.006;2023-02-17T10:41:35;102040.78;;;2.55;73.83
71643;BME280;59438;45.014;39.006;2023-02-17T10:44:07;102044.41;;;2.67;73.87
71643;BME280;59438;45.014;39.006;2023-02-17T10:46:34;102033.16;;;2.68;73.87
71643;BME280;59438;45.014;39.006;2023-02-17T10:49:00;101985.19;;;2.41;73.71
71643;BME280;59438;45.014;39.006;2023-02-17T10:51:29;102022.78;;;2.66;73.56
71643;BME280;59438;45.014;39.006;2023-02-17T10:53:58;102023.69;;;2.70;74.08
71643;BME280;59438;45.014;39.006;2023-02-17T10:56:34;101999.19;;;2.52;73.65
71643;BME280;59438;45.014;39.006;2023-02-17T10:59:07;101985.28;;;2.49;73.49
71643;BME280;59438;45.014;39.006;2023-02-17T11:01:40;102007.94;;;2.57;73.91
71643;BME280;59438;45.014;39.006;2023-02-17T11:04:08;102022.97;;;2.77;74.01
71643;BME280;59438;45.014;39.006;2023-02-17T11:06:36;101995.94;;;2.66;73.96
71643;BME280;59438;45.014;39.006;2023-02-17T11:09:06;102010.13;;;2.86;73.97
71643;BME280;59438;45.014;39.006;2023-02-17T11:11:49;101957.75;;;2.57;73.98
71643;BME280;59438;45.014;39.006;2023-02-17T11:14:22;101987.50;;;2.77;74.08
71643;BME280;59438;45.014;39.006;2023-02-17T11:16:53;101993.59;;;2.81;74.34
71643;BME280;59438;45.014;39.006;2023-02-17T11:19:23;102000.53;;;2.80;73.90
71643;BME280;59438;45.014;39.006;2023-02-17T11:21:50;101974.28;;;2.63;73.78
71643;BME280;59438;45.014;39.006;2023-02-17T11:24:17;101990.84;;;2.72;74.19
71643;BME280;59438;45.014;39.006;2023-02-17T11:26:55;101998.75;;;2.76;74.73
71643;BME280;59438;45.014;39.006;2023-02-17T11:29:22;101941.13;;;2.44;74.37
71643;BME280;59438;45.014;39.006;2023-02-17T11:31:53;101989.06;;;2.68;74.50
71643;BME280;59438;45.014;39.006;2023-02-17T11:34:22;102001.22;;;2.72;74.11
71643;BME280;59438;45.014;39.006;2023-02-17T11:36:58;101966.44;;;2.57;74.70
71643;BME280;59438;45.014;39.006;2023-02-17T11:39:25;101901.13;;;2.27;74.54
71643;BME280;59438;45.014;39.006;2023-02-17T11:41:53;101916.00;;;2.40;74.99
71643;BME280;59438;45.014;39.006;2023-02-17T11:44:23;101946.38;;;2.46;74.83
71643;BME280;59438;45.014;39.006;2023-02-17T11:46:56;101986.69;;;2.81;75.07
71643;BME280;59438;45.014;39.006;2023-02-17T11:52:43;101980.72;;;2.87;74.87
71643;BME280;59438;45.014;39.006;2023-02-17T11:55:18;101857.63;;;2.10;74.88
71643;BME280;59438;45.014;39.006;2023-02-17T11:58:02;101927.59;;;2.63;74.97
71643;BME280;59438;45.014;39.006;2023-02-17T12:00:37;101904.97;;;2.52;75.09
71643;BME280;59438;45.014;39.006;2023-02-17T12:06:12;101891.09;;;2.50;74.60
71643;BME280;59438;45.014;39.006;2023-02-17T12:08:47;101951.28;;;2.85;74.65
71643;BME280;59438;45.014;39.006;2023-02-17T12:11:24;101932.88;;;2.70;74.80
71643;BME280;59438;45.014;39.006;2023-02-17T12:14:08;101976.50;;;2.94;74.71
71643;BME280;59438;45.014;39.006;2023-02-17T12:16:47;101961.63;;;2.83;74.62
71643;BME280;59438;45.014;39.006;2023-02-17T12:19:35;101976.38;;;2.86;75.21
71643;BME280;59438;45.014;39.006;2023-02-17T12:22:15;101976.44;;;2.89;75.04
71643;BME280;59438;45.014;39.006;2023-02-17T12:25:10;101958.19;;;2.83;75.11
71643;BME280;59438;45.014;39.006;2023-02-17T12:27:52;101940.63;;;2.67;75.54
71643;BME280;59438;45.014;39.006;2023-02-17T12:30:32;101979.00;;;2.88;75.20
71643;BME280;59438;45.014;39.006;2023-02-17T12:35:56;101948.66;;;2.83;75.25
71643;BME280;59438;45.014;39.006;2023-02-17T12:38:28;101935.53;;;2.73;74.57
71643;BME280;59438;45.014;39.006;2023-02-17T12:41:01;101958.31;;;2.91;74.84
71643;BME280;59438;45.014;39.006;2023-02-17T12:43:33;101960.88;;;2.92;74.81
71643;BME280;59438;45.014;39.006;2023-02-17T12:46:05;101913.00;;;2.69;74.78
71643;BME280;59438;45.014;39.006;2023-02-17T12:48:35;101962.63;;;2.92;74.53
71643;BME280;59438;45.014;39.006;2023-02-17T12:51:04;101960.97;;;2.97;74.81
71643;BME280;59438;45.014;39.006;2023-02-17T12:53:53;101973.91;;;2.94;74.58
71643;BME280;59438;45.014;39.006;2023-02-17T12:56:41;101967.81;;;2.92;74.81
71643;BME280;59438;45.014;39.006;2023-02-17T12:59:14;101944.41;;;2.87;74.63
71643;BME280;59438;45.014;39.006;2023-02-17T13:01:48;101921.69;;;2.72;75.09
71643;BME280;59438;45.014;39.006;2023-02-17T13:04:17;101916.34;;;2.61;74.49
71643;BME280;59438;45.014;39.006;2023-02-17T13:06:49;101948.66;;;2.83;75.12
71643;BME280;59438;45.014;39.006;2023-02-17T13:09:23;101917.19;;;2.60;75.31
71643;BME280;59438;45.014;39.006;2023-02-17T13:11:51;101947.69;;;2.77;74.95